createdAt,value
2023-02-25T00:01:51.183Z,16.40
2023-02-25T00:04:30.742Z,18.73
2023-02-25T00:06:58.845Z,17.23
2023-02-25T00:09:27.160Z,18.17
2023-02-25T00:11:55.333Z,13.13
2023-02-25T00:14:23.588Z,10.85
2023-02-25T00:16:55.995Z,13.63
2023-02-25T00:19:24.848Z,14.20
2023-02-25T00:21:54.522Z,16.27
2023-02-25T00:24:22.428Z,11.55
2023-02-25T00:26:50.707Z,11.70
2023-02-25T00:29:18.831Z,12.20
2023-02-25T00:31:47.249Z,13.00
2023-02-25T00:34:17.841Z,10.48
2023-02-25T00:36:45.912Z,12.20
2023-02-25T00:39:15.703Z,13.68
2023-02-25T00:41:43.974Z,15.63
2023-02-25T00:44:13.179Z,16.33
2023-02-25T00:46:41.488Z,12.23
2023-02-25T00:49:10.660Z,14.55
2023-02-25T00:51:39.824Z,14.98
2023-02-25T00:54:08.068Z,13.63
2023-02-25T00:56:37.509Z,17.90
2023-02-25T00:59:05.699Z,11.50
2023-02-25T01:01:34.954Z,14.10
2023-02-25T01:04:03.306Z,17.85
2023-02-25T01:06:34.020Z,11.63
2023-02-25T01:09:02.281Z,10.95
2023-02-25T01:11:32.820Z,12.20
2023-02-25T01:14:04.424Z,10.77
2023-02-25T01:16:34.671Z,10.85
2023-02-25T01:19:05.607Z,20.08
2023-02-25T01:21:36.786Z,12.80
2023-02-25T01:24:07.719Z,14.52
2023-02-25T01:26:37.727Z,9.80
2023-02-25T01:29:10.037Z,14.32
2023-02-25T01:31:38.482Z,8.20
2023-02-25T01:34:09.162Z,13.15
2023-02-25T01:36:38.115Z,12.40
2023-02-25T01:39:08.358Z,21.50
2023-02-25T01:41:38.801Z,13.25
2023-02-25T01:44:12.953Z,9.93
2023-02-25T01:46:42.600Z,11.73
2023-02-25T01:49:16.298Z,13.65
2023-02-25T01:51:47.224Z,16.15
2023-02-25T01:54:16.813Z,11.60
2023-02-25T01:56:50.031Z,23.10
2023-02-25T01:59:22.255Z,13.88
2023-02-25T02:01:50.946Z,11.95
2023-02-25T02:04:23.264Z,10.48
2023-02-25T02:06:52.866Z,12.52
2023-02-25T02:09:23.961Z,14.23
2023-02-25T02:11:52.486Z,11.02
2023-02-25T02:14:27.789Z,11.95
2023-02-25T02:17:27.309Z,9.68
2023-02-25T02:20:11.502Z,20.10
2023-02-25T02:22:51.157Z,11.70
2023-02-25T02:25:53.576Z,11.50
2023-02-25T02:28:55.168Z,13.45
2023-02-25T02:31:37.544Z,11.60
2023-02-25T02:34:16.705Z,11.18
2023-02-25T02:36:57.460Z,11.95
2023-02-25T02:39:33.039Z,11.77
2023-02-25T02:42:04.625Z,8.98
2023-02-25T02:44:42.111Z,13.10
2023-02-25T02:47:18.241Z,10.88
2023-02-25T02:49:51.709Z,9.48
2023-02-25T02:52:25.876Z,11.30
2023-02-25T02:54:59.177Z,8.30
2023-02-25T02:57:28.918Z,12.35
2023-02-25T03:00:01.684Z,12.50
2023-02-25T03:02:36.745Z,15.13
2023-02-25T03:05:09.760Z,13.85
2023-02-25T03:07:44.531Z,10.32
2023-02-25T03:10:17.168Z,11.88
2023-02-25T03:22:13.596Z,15.13
2023-02-25T03:28:58.008Z,14.65
2023-02-25T03:31:42.540Z,8.77
2023-02-25T03:34:19.154Z,7.45
2023-02-25T03:36:55.280Z,9.32
2023-02-25T03:44:00.269Z,9.95
2023-02-25T03:46:32.618Z,6.55
2023-02-25T03:58:45.332Z,8.98
2023-02-25T04:01:17.345Z,6.38
2023-02-25T04:03:46.757Z,6.57
2023-02-25T04:06:16.534Z,5.13
2023-02-25T04:08:45.499Z,7.68
2023-02-25T04:20:43.235Z,3.75
2023-02-25T04:23:14.432Z,5.00
2023-02-25T04:25:43.406Z,5.55
2023-02-25T04:28:12.274Z,5.78
2023-02-25T04:30:40.831Z,3.40
2023-02-25T04:37:54.421Z,3.38
2023-02-25T04:40:24.232Z,4.03
2023-02-25T04:42:53.075Z,7.38
2023-02-25T05:07:11.511Z,5.22
2023-02-25T05:09:41.348Z,5.03
2023-02-25T05:12:09.597Z,5.80
2023-02-25T05:14:38.915Z,3.13
2023-02-25T05:17:07.428Z,5.50
2023-02-25T05:19:36.086Z,2.92
2023-02-25T05:31:30.442Z,4.78
2023-02-25T05:33:59.516Z,5.40
2023-02-25T05:36:28.610Z,3.42
2023-02-25T05:43:29.789Z,3.75
2023-02-25T05:46:00.045Z,4.85
2023-02-25T05:48:31.692Z,7.35
2023-02-25T05:51:05.275Z,4.55
2023-02-25T05:53:33.906Z,4.07
2023-02-25T06:18:58.172Z,3.70
2023-02-25T06:21:27.315Z,3.17
2023-02-25T06:28:46.203Z,3.13
2023-02-25T06:40:36.198Z,4.50
2023-02-25T06:52:46.980Z,3.20
2023-02-25T06:55:15.852Z,8.30
2023-02-25T06:57:44.321Z,4.70
2023-02-25T07:04:44.188Z,4.00
2023-02-25T07:07:13.237Z,3.30
2023-02-25T07:19:07.164Z,2.60
2023-02-25T07:21:36.145Z,2.70
2023-02-25T07:24:05.256Z,2.38
2023-02-25T07:31:14.921Z,2.45
2023-02-25T07:33:43.529Z,2.90
2023-02-25T07:45:38.476Z,2.63
2023-02-25T07:52:56.487Z,2.60
2023-02-25T08:14:23.099Z,3.55
2023-02-25T08:16:53.475Z,4.35
2023-02-25T08:21:22.174Z,4.57
2023-02-25T08:23:52.112Z,4.78
2023-02-25T08:26:22.646Z,4.88
2023-02-25T08:33:49.818Z,6.22
2023-02-25T08:36:20.986Z,4.15
2023-02-25T08:38:50.284Z,3.97
2023-02-25T08:41:19.554Z,3.25
2023-02-25T08:58:31.559Z,4.63
2023-02-25T09:01:02.050Z,4.60
2023-02-25T09:03:30.730Z,3.58
2023-02-25T09:15:18.814Z,3.38
2023-02-25T09:17:53.264Z,3.72
2023-02-25T09:20:22.035Z,4.03
2023-02-25T09:36:41.120Z,3.80
2023-02-25T10:18:29.541Z,3.67
2023-02-25T10:21:13.773Z,4.00
2023-02-25T10:28:37.569Z,4.10
2023-02-25T10:31:10.297Z,5.80
2023-02-25T11:08:34.777Z,2.92
2023-02-25T11:11:23.024Z,2.70
2023-02-25T12:45:13.599Z,2.30
2023-02-25T13:16:15.019Z,2.33
2023-02-25T13:18:51.554Z,1.40
2023-02-25T13:40:21.004Z,1.90
2023-02-25T13:53:19.353Z,1.52
2023-02-25T13:56:24.354Z,1.50
2023-02-25T14:14:34.854Z,1.30
2023-02-25T15:27:25.659Z,4.07
2023-02-25T15:31:28.710Z,9.57
2023-02-25T15:51:56.881Z,4.10
2023-02-25T16:01:39.917Z,2.40
2023-02-25T16:11:08.236Z,3.30
2023-02-25T16:14:37.839Z,2.20
2023-02-25T16:18:15.574Z,2.85
2023-02-25T16:21:47.316Z,2.22
2023-02-25T16:31:23.202Z,1.95
2023-02-25T16:41:16.638Z,2.55
2023-02-25T17:31:33.990Z,4.97
2023-02-25T17:36:44.540Z,6.00
2023-02-25T17:47:35.917Z,3.50
2023-02-25T17:51:13.975Z,2.65
2023-02-25T18:00:33.520Z,1.95
2023-02-25T18:04:13.079Z,2.28
2023-02-25T18:18:24.212Z,2.42
2023-02-25T18:33:28.493Z,1.90
2023-02-25T18:36:55.723Z,3.38
2023-02-25T18:40:26.988Z,1.95
2023-02-25T20:31:38.934Z,3.80
2023-02-25T20:35:06.466Z,3.78
2023-02-25T20:38:39.758Z,3.75
2023-02-25T20:42:08.321Z,4.13
2023-02-25T20:45:36.025Z,4.05
2023-02-25T20:49:05.170Z,6.50
2023-02-25T20:52:32.612Z,5.28
2023-02-25T20:55:59.393Z,6.72
2023-02-25T20:59:26.192Z,13.25
2023-02-25T21:02:52.877Z,4.57
2023-02-25T21:06:23.015Z,3.05
2023-02-25T21:09:49.977Z,3.33
2023-02-25T21:13:17.354Z,2.58
2023-02-25T21:22:09.623Z,4.32
2023-02-25T21:36:23.928Z,3.28
2023-02-25T21:39:51.738Z,3.85
2023-02-25T21:43:19.249Z,3.75
2023-02-25T21:57:40.596Z,2.70
2023-02-25T22:01:15.630Z,4.20
2023-02-25T22:04:43.092Z,3.40
2023-02-25T22:08:10.346Z,3.03
2023-02-25T22:11:38.676Z,3.17
2023-02-25T22:15:08.868Z,2.10
2023-02-25T22:18:37.095Z,2.50
2023-02-25T22:22:08.792Z,2.97
2023-02-25T22:25:35.669Z,4.50
2023-02-25T22:57:34.854Z,3.42
2023-02-25T23:01:08.340Z,7.97
2023-02-25T23:04:35.570Z,4.30
2023-02-25T23:08:02.871Z,5.50
2023-02-25T23:11:31.617Z,3.22
2023-02-25T23:22:02.800Z,4.53
2023-02-25T23:26:44.674Z,3.45
2023-02-25T23:30:14.793Z,5.65
2023-02-25T23:45:38.839Z,3.13
2023-02-25T23:49:08.923Z,2.78
2023-02-25T23:52:36.378Z,3.80
2023-02-25T23:56:07.146Z,4.68
2023-02-25T23:59:35.055Z,4.15
